Crown Of Scandinavia — OXRA6 — position and weather

sailwx.info

Track history (hours):
 
Tides and Currents Weather Stations Pressure Air Temp Water Temp Dewpoint Dewpoint Depression Visibility Wind Speed Wind Dir Waves Ship Positions

Crown Of Scandinavia

Last reported at 2020-Jul-14 07:00 UTC. Time now 2020-Jul-14 12:36 UTC.
Position N 59°54' E 010°45'.

Length 171 m; draft 6.3 m.

Type: Passenger vessel. MMSI: 219592000.

Date/timePositionNaut miles runAvg speedWind from/ knotsBaromVisibWave heightAir tempDewpointWater temp
2020-Jul-14 07:00N 59°54' E 010°45'3 6.8
2020-Jul-14 06:31N 59°52' E 010°39'2315.2
2020-Jul-14 05:00N 59°30' E 010°35'2617.2
2020-Jul-14 03:30N 59°04' E 010°41'1817.6
2020-Jul-14 02:30N 58°47' E 010°45'1818.0
2020-Jul-14 01:30N 58°29' E 010°53'1818.1
2020-Jul-14 00:30N 58°11' E 011°01'57 8.8
2020-Jul-13 18:01N 57°19' E 011°45'1918.7
2020-Jul-13 17:00N 57°03' E 012°02'6217.7
2020-Jul-13 13:31N 56°04' E 012°38'816.9
2020-Jul-13 13:01N 55°56' E 012°43'15 2.9
2020-Jul-13 07:55N 55°42' E 012°36'11111.8
2020-Jul-12 22:31N 57°26' E 011°25'713.7
2020-Jul-12 22:00N 57°30' E 011°15'16 5.4
2020-Jul-12 19:00N 57°31' E 010°45'917.2
2020-Jul-12 18:30N 57°40' E 010°46'6616.5
2020-Jul-12 14:30N 58°46' E 010°45'1717.2
2020-Jul-12 13:31N 59°03' E 010°41'1717.5
2020-Jul-12 12:31N 59°20' E 010°35'2415.9
2020-Jul-12 11:00N 59°44' E 010°34'12 3.4
2020-Jul-12 07:30N 59°54' E 010°45'2510.1
2020-Jul-12 05:01N 59°29' E 010°35'6217.8
2020-Jul-12 01:30N 58°28' E 010°55'2617.3
2020-Jul-12 00:01N 58°02' E 010°57'2516.9
2020-Jul-11 22:31N 57°37' E 010°48'14 9.1
2020-Jul-11 21:00N 57°26' E 010°33'2814.2
2020-Jul-11 19:00N 57°28' E 011°25'9316.9
2020-Jul-11 13:31N 56°04' E 012°37'22 8.8
2020-Jul-11 10:59N 55°42' E 012°36'0 0.0
2020-Jul-11 08:59N 55°42' E 012°36'0 0.0
2020-Jul-11 07:56N 55°42' E 012°36'11011.6
2020-Jul-10 22:31N 57°25' E 011°27'28 9.2
2020-Jul-10 19:30N 57°25' E 010°36'713.6
2020-Jul-10 19:00N 57°31' E 010°43'4916.2
2020-Jul-10 16:00N 58°18' E 011°00'1716.4
2020-Jul-10 15:00N 58°34' E 010°51'2516.7
2020-Jul-10 13:30N 58°58' E 010°40'2818.7
2020-Jul-10 12:00N 59°26' E 010°33'1616.0
2020-Jul-10 11:00N 59°42' E 010°35'13 5.1
2020-Jul-10 08:28N 59°54' E 010°45'3 1.8
2020-Jul-10 06:30N 59°52' E 010°39'816.8
2020-Jul-10 06:00N 59°44' E 010°35'713.4
2020-Jul-10 05:31N 59°38' E 010°38'4715.8
2020-Jul-10 02:31N 58°50' E 010°40'916.7
2020-Jul-10 02:00N 58°42' E 010°41'917.6
2020-Jul-10 01:31N 58°33' E 010°42'918.6
2020-Jul-10 01:01N 58°24' E 010°43'918.7
2020-Jul-10 00:30N 58°14' E 010°45'4518.0
2020-Jul-09 22:01N 57°29' E 010°46'5 2.3
2020-Jul-09 20:00N 57°26' E 010°52'9415.7
2020-Jul-09 14:00N 56°09' E 012°29'2416.1
2020-Jul-09 12:30N 55°46' E 012°41'5 8.8
2020-Jul-09 11:58N 55°42' E 012°36'0 0.0
2020-Jul-09 11:28N 55°42' E 012°36'0 0.0
2020-Jul-09 10:25N 55°42' E 012°36'0 0.0
2020-Jul-09 08:58N 55°42' E 012°36'0 0.0
2020-Jul-09 08:25N 55°42' E 012°36'0 0.0
2020-Jul-09 07:00N 55°42' E 012°36'8 7.5
2020-Jul-09 06:01N 55°48' E 012°43'11314.2
2020-Jul-08 22:00N 57°30' E 011°13'2114.3
2020-Jul-08 20:30N 57°26' E 010°34'3110.3
2020-Jul-08 17:30N 57°55' E 010°51'917.4
2020-Jul-08 17:00N 58°04' E 010°54'2416.2
2020-Jul-08 15:30N 58°28' E 010°55'2617.4
2020-Jul-08 14:00N 58°53' E 010°44'918.4
2020-Jul-08 13:30N 59°02' E 010°40'919.0
2020-Jul-08 13:00N 59°12' E 010°38'1019.0
2020-Jul-08 12:30N 59°21' E 010°35'2516.7
2020-Jul-08 11:00N 59°46' E 010°33'10 1.8
2020-Jul-08 05:31N 59°37' E 010°38'4417.8
2020-Jul-08 03:01N 58°52' E 010°40'7318.3
2020-Jul-07 23:00N 57°39' E 010°48'1615.8
2020-Jul-07 22:00N 57°25' E 010°36'3 1.9
2020-Jul-07 20:30N 57°25' E 010°42'3215.8
2020-Jul-07 18:30N 57°22' E 011°40'7817.4
2020-Jul-07 14:00N 56°09' E 012°30'1616.1
2020-Jul-07 13:01N 55°55' E 012°44'14 9.0
2020-Jul-07 11:29N 55°42' E 012°36'0 0.0
2020-Jul-07 10:59N 55°42' E 012°36'0 0.0
2020-Jul-07 07:29N 55°42' E 012°36'16 8.0
2020-Jul-07 05:30N 55°58' E 012°40'815.6
2020-Jul-07 05:00N 56°05' E 012°35'7014.0
2020-Jul-07 00:01N 57°07' E 011°37'2214.5
2020-Jul-06 22:31N 57°28' E 011°25'22 6.4
2020-Jul-06 19:00N 57°29' E 010°44'816.5
2020-Jul-06 18:30N 57°37' E 010°45'1817.6
2020-Jul-06 17:30N 57°54' E 010°50'816.8
2020-Jul-06 17:00N 58°03' E 010°54'8316.6
2020-Jul-06 12:00N 59°25' E 010°33'1616.5
2020-Jul-06 11:00N 59°42' E 010°36'1313.4
2020-Jul-06 10:00N 59°54' E 010°45'0 0.0
2020-Jul-06 09:30N 59°54' E 010°45'0 0.0
2020-Jul-06 08:30N 59°54' E 010°45'0 0.0
2020-Jul-06 08:00N 59°54' E 010°45'31 9.0
2020-Jul-06 04:31N 59°23' E 010°35'2818.5
2020-Jul-06 03:01N 58°56' E 010°42'917.4
2020-Jul-06 02:30N 58°47' E 010°45'1918.5
2020-Jul-06 01:28N 58°28' E 010°49'6318.3
2020-Jul-05 22:01N 57°25' E 010°39'4 2.2
2020-Jul-05 20:00N 57°26' E 010°46'11715.7
2020-Jul-05 12:30N 55°48' E 012°43'7 3.4
2020-Jul-05 10:30N 55°42' E 012°36'16 3.2
2020-Jul-05 05:30N 55°58' E 012°40'10014.3
2020-Jul-04 22:31N 57°28' E 011°21'2610.0
2020-Jul-04 19:53N 57°26' E 010°33'1 1.6
2020-Jul-04 19:30N 57°26' E 010°34'1212.4
2020-Jul-04 18:31N 57°36' E 010°45'10317.2
2020-Jul-04 12:30N 59°19' E 010°35'1717.4
2020-Jul-04 11:30N 59°37' E 010°38'  
Track history (hours):
 
Tides and Currents Weather Stations Pressure Air Temp Water Temp Dewpoint Dewpoint Depression Visibility Wind Speed Wind Dir Waves Ship Positions

Crown Of Scandinavia

Last reported at 2020-Jul-14 07:00 UTC. Time now 2020-Jul-14 12:36 UTC.
Position N 59°54' E 010°45'.

Length 171 m; draft 6.3 m.

Type: Passenger vessel. MMSI: 219592000.

Date/timePositionNaut miles runAvg speedWind from/ knotsBaromVisibWave heightAir tempDewpointWater temp
2020-Jul-14 07:00N 59°54' E 010°45'3 6.8
2020-Jul-14 06:31N 59°52' E 010°39'2315.2
2020-Jul-14 05:00N 59°30' E 010°35'2617.2
2020-Jul-14 03:30N 59°04' E 010°41'1817.6
2020-Jul-14 02:30N 58°47' E 010°45'1818.0
2020-Jul-14 01:30N 58°29' E 010°53'1818.1
2020-Jul-14 00:30N 58°11' E 011°01'57 8.8
2020-Jul-13 18:01N 57°19' E 011°45'1918.7
2020-Jul-13 17:00N 57°03' E 012°02'6217.7
2020-Jul-13 13:31N 56°04' E 012°38'816.9
2020-Jul-13 13:01N 55°56' E 012°43'15 2.9
2020-Jul-13 07:55N 55°42' E 012°36'11111.8
2020-Jul-12 22:31N 57°26' E 011°25'713.7
2020-Jul-12 22:00N 57°30' E 011°15'16 5.4
2020-Jul-12 19:00N 57°31' E 010°45'917.2
2020-Jul-12 18:30N 57°40' E 010°46'6616.5
2020-Jul-12 14:30N 58°46' E 010°45'1717.2
2020-Jul-12 13:31N 59°03' E 010°41'1717.5
2020-Jul-12 12:31N 59°20' E 010°35'2415.9
2020-Jul-12 11:00N 59°44' E 010°34'12 3.4
2020-Jul-12 07:30N 59°54' E 010°45'2510.1
2020-Jul-12 05:01N 59°29' E 010°35'6217.8
2020-Jul-12 01:30N 58°28' E 010°55'2617.3
2020-Jul-12 00:01N 58°02' E 010°57'2516.9
2020-Jul-11 22:31N 57°37' E 010°48'14 9.1
2020-Jul-11 21:00N 57°26' E 010°33'2814.2
2020-Jul-11 19:00N 57°28' E 011°25'9316.9
2020-Jul-11 13:31N 56°04' E 012°37'22 8.8
2020-Jul-11 10:59N 55°42' E 012°36'0 0.0
2020-Jul-11 08:59N 55°42' E 012°36'0 0.0
2020-Jul-11 07:56N 55°42' E 012°36'11011.6
2020-Jul-10 22:31N 57°25' E 011°27'28 9.2
2020-Jul-10 19:30N 57°25' E 010°36'713.6
2020-Jul-10 19:00N 57°31' E 010°43'4916.2
2020-Jul-10 16:00N 58°18' E 011°00'1716.4
2020-Jul-10 15:00N 58°34' E 010°51'2516.7
2020-Jul-10 13:30N 58°58' E 010°40'2818.7
2020-Jul-10 12:00N 59°26' E 010°33'1616.0
2020-Jul-10 11:00N 59°42' E 010°35'13 5.1
2020-Jul-10 08:28N 59°54' E 010°45'3 1.8
2020-Jul-10 06:30N 59°52' E 010°39'816.8
2020-Jul-10 06:00N 59°44' E 010°35'713.4
2020-Jul-10 05:31N 59°38' E 010°38'4715.8
2020-Jul-10 02:31N 58°50' E 010°40'916.7
2020-Jul-10 02:00N 58°42' E 010°41'917.6
2020-Jul-10 01:31N 58°33' E 010°42'918.6
2020-Jul-10 01:01N 58°24' E 010°43'918.7
2020-Jul-10 00:30N 58°14' E 010°45'4518.0
2020-Jul-09 22:01N 57°29' E 010°46'5 2.3
2020-Jul-09 20:00N 57°26' E 010°52'9415.7
2020-Jul-09 14:00N 56°09' E 012°29'2416.1
2020-Jul-09 12:30N 55°46' E 012°41'5 8.8
2020-Jul-09 11:58N 55°42' E 012°36'0 0.0
2020-Jul-09 11:28N 55°42' E 012°36'0 0.0
2020-Jul-09 10:25N 55°42' E 012°36'0 0.0
2020-Jul-09 08:58N 55°42' E 012°36'0 0.0
2020-Jul-09 08:25N 55°42' E 012°36'0 0.0
2020-Jul-09 07:00N 55°42' E 012°36'8 7.5
2020-Jul-09 06:01N 55°48' E 012°43'11314.2
2020-Jul-08 22:00N 57°30' E 011°13'2114.3
2020-Jul-08 20:30N 57°26' E 010°34'3110.3
2020-Jul-08 17:30N 57°55' E 010°51'917.4
2020-Jul-08 17:00N 58°04' E 010°54'2416.2
2020-Jul-08 15:30N 58°28' E 010°55'2617.4
2020-Jul-08 14:00N 58°53' E 010°44'918.4
2020-Jul-08 13:30N 59°02' E 010°40'919.0
2020-Jul-08 13:00N 59°12' E 010°38'1019.0
2020-Jul-08 12:30N 59°21' E 010°35'2516.7
2020-Jul-08 11:00N 59°46' E 010°33'10 1.8
2020-Jul-08 05:31N 59°37' E 010°38'4417.8
2020-Jul-08 03:01N 58°52' E 010°40'7318.3
2020-Jul-07 23:00N 57°39' E 010°48'1615.8
2020-Jul-07 22:00N 57°25' E 010°36'3 1.9
2020-Jul-07 20:30N 57°25' E 010°42'3215.8
2020-Jul-07 18:30N 57°22' E 011°40'7817.4
2020-Jul-07 14:00N 56°09' E 012°30'1616.1
2020-Jul-07 13:01N 55°55' E 012°44'14 9.0
2020-Jul-07 11:29N 55°42' E 012°36'0 0.0
2020-Jul-07 10:59N 55°42' E 012°36'0 0.0
2020-Jul-07 07:29N 55°42' E 012°36'16 8.0
2020-Jul-07 05:30N 55°58' E 012°40'815.6
2020-Jul-07 05:00N 56°05' E 012°35'7014.0
2020-Jul-07 00:01N 57°07' E 011°37'2214.5
2020-Jul-06 22:31N 57°28' E 011°25'22 6.4
2020-Jul-06 19:00N 57°29' E 010°44'816.5
2020-Jul-06 18:30N 57°37' E 010°45'1817.6
2020-Jul-06 17:30N 57°54' E 010°50'816.8
2020-Jul-06 17:00N 58°03' E 010°54'8316.6
2020-Jul-06 12:00N 59°25' E 010°33'1616.5
2020-Jul-06 11:00N 59°42' E 010°36'1313.4
2020-Jul-06 10:00N 59°54' E 010°45'0 0.0
2020-Jul-06 09:30N 59°54' E 010°45'0 0.0
2020-Jul-06 08:30N 59°54' E 010°45'0 0.0
2020-Jul-06 08:00N 59°54' E 010°45'31 9.0
2020-Jul-06 04:31N 59°23' E 010°35'2818.5
2020-Jul-06 03:01N 58°56' E 010°42'917.4
2020-Jul-06 02:30N 58°47' E 010°45'1918.5
2020-Jul-06 01:28N 58°28' E 010°49'6318.3
2020-Jul-05 22:01N 57°25' E 010°39'4 2.2
2020-Jul-05 20:00N 57°26' E 010°46'11715.7
2020-Jul-05 12:30N 55°48' E 012°43'7 3.4
2020-Jul-05 10:30N 55°42' E 012°36'16 3.2
2020-Jul-05 05:30N 55°58' E 012°40'10014.3
2020-Jul-04 22:31N 57°28' E 011°21'2610.0
2020-Jul-04 19:53N 57°26' E 010°33'1 1.6
2020-Jul-04 19:30N 57°26' E 010°34'1212.4
2020-Jul-04 18:31N 57°36' E 010°45'10317.2
2020-Jul-04 12:30N 59°19' E 010°35'1717.4
2020-Jul-04 11:30N 59°37' E 010°38'  

Dump ship's entire track history